createdAt,value
2022-10-07T00:00:52.149Z,7.42
2022-10-07T00:03:19.867Z,7.36
2022-10-07T00:05:46.487Z,7.49
2022-10-07T00:08:12.946Z,7.44
2022-10-07T00:10:40.891Z,7.22
2022-10-07T00:13:09.007Z,7.39
2022-10-07T00:15:36.064Z,7.51
2022-10-07T00:18:02.636Z,7.48
2022-10-07T00:20:29.125Z,7.54
2022-10-07T00:22:55.574Z,7.33
2022-10-07T00:25:22.153Z,7.42
2022-10-07T00:27:50.174Z,7.35
2022-10-07T00:30:17.121Z,7.35
2022-10-07T00:32:43.852Z,7.40
2022-10-07T00:35:10.338Z,7.44
2022-10-07T00:37:42.995Z,7.68
2022-10-07T00:40:11.705Z,7.51
2022-10-07T00:42:40.107Z,7.32
2022-10-07T00:45:15.001Z,7.18
2022-10-07T00:47:44.419Z,6.95
2022-10-07T00:50:17.430Z,6.85
2022-10-07T00:52:57.602Z,6.90
2022-10-07T00:55:26.529Z,6.83
2022-10-07T00:57:55.142Z,7.08
2022-10-07T01:00:23.999Z,7.13
2022-10-07T01:02:51.138Z,7.11
2022-10-07T01:05:18.180Z,7.08
2022-10-07T01:07:47.299Z,6.81
2022-10-07T01:10:20.020Z,6.78
2022-10-07T01:13:08.426Z,6.75
2022-10-07T01:15:39.665Z,6.69
2022-10-07T01:18:15.339Z,6.60
2022-10-07T01:21:03.402Z,6.71
2022-10-07T01:23:45.152Z,6.68
2022-10-07T01:26:14.604Z,6.84
2022-10-07T01:28:44.751Z,6.70
2022-10-07T01:31:13.734Z,6.69
2022-10-07T01:33:41.628Z,6.56
2022-10-07T01:36:11.258Z,6.59
2022-10-07T01:38:41.302Z,6.28
2022-10-07T01:41:11.581Z,6.22
2022-10-07T01:43:39.325Z,6.29
2022-10-07T01:46:09.839Z,6.26
2022-10-07T01:48:36.458Z,6.27
2022-10-07T01:51:03.015Z,6.23
2022-10-07T01:53:35.468Z,6.24
2022-10-07T01:56:18.915Z,6.27
2022-10-07T01:58:54.477Z,6.27
2022-10-07T02:01:37.905Z,6.35
2022-10-07T02:04:19.674Z,6.26
2022-10-07T02:07:17.842Z,6.16
2022-10-07T02:09:59.639Z,6.23
2022-10-07T02:12:29.022Z,6.25
2022-10-07T02:15:09.329Z,6.12
2022-10-07T02:17:37.770Z,6.09
2022-10-07T02:20:06.135Z,6.00
2022-10-07T02:22:33.299Z,6.02
2022-10-07T02:24:59.942Z,6.12
2022-10-07T02:27:30.927Z,6.27
2022-10-07T02:30:01.366Z,6.13
2022-10-07T02:32:29.247Z,5.96
2022-10-07T02:35:00.376Z,5.92
2022-10-07T02:37:29.921Z,5.94
2022-10-07T02:39:57.015Z,5.81
2022-10-07T02:42:28.146Z,5.73
2022-10-07T02:45:16.169Z,5.73
2022-10-07T02:47:45.237Z,5.72
2022-10-07T02:50:15.136Z,5.78
2022-10-07T02:52:42.718Z,5.75
2022-10-07T02:55:16.085Z,5.68
2022-10-07T02:57:47.103Z,5.71
2022-10-07T03:00:14.693Z,5.60
2022-10-07T03:02:47.287Z,5.47
2022-10-07T03:05:14.861Z,5.60
2022-10-07T03:07:42.243Z,5.66
2022-10-07T03:10:09.236Z,5.67
2022-10-07T03:12:35.729Z,5.64
2022-10-07T03:15:02.286Z,5.70
2022-10-07T03:17:28.805Z,5.98
2022-10-07T03:19:55.374Z,5.87
2022-10-07T03:22:21.936Z,5.64
2022-10-07T03:24:48.504Z,5.64
2022-10-07T03:27:15.114Z,5.55
2022-10-07T03:29:41.642Z,5.72
2022-10-07T03:32:08.188Z,5.77
2022-10-07T03:34:35.640Z,5.57
2022-10-07T03:37:02.187Z,5.40
2022-10-07T03:39:28.720Z,5.55
2022-10-07T03:41:57.137Z,5.43
2022-10-07T03:44:24.053Z,5.31
2022-10-07T03:46:51.780Z,5.29
2022-10-07T03:49:20.204Z,5.18
2022-10-07T03:51:46.981Z,5.18
2022-10-07T03:54:13.663Z,5.05
2022-10-07T03:56:40.236Z,5.07
2022-10-07T03:59:06.771Z,5.10
2022-10-07T04:01:33.333Z,5.14
2022-10-07T04:04:00.839Z,5.03
2022-10-07T04:06:27.530Z,5.04
2022-10-07T04:08:55.316Z,5.13
2022-10-07T04:11:23.132Z,5.12
2022-10-07T04:13:50.369Z,5.21
2022-10-07T04:16:17.219Z,5.23
2022-10-07T04:18:44.352Z,5.27
2022-10-07T04:21:11.210Z,5.21
2022-10-07T04:23:37.802Z,5.09
2022-10-07T04:26:09.449Z,5.01
2022-10-07T04:28:36.773Z,4.88
2022-10-07T04:31:08.764Z,4.87
2022-10-07T04:33:39.289Z,4.90
2022-10-07T04:36:09.469Z,4.87
2022-10-07T04:38:36.153Z,4.92
2022-10-07T04:41:05.092Z,4.97
2022-10-07T04:43:33.977Z,4.91
2022-10-07T04:46:13.771Z,4.75
2022-10-07T04:48:43.658Z,4.77
2022-10-07T04:51:10.297Z,4.89
2022-10-07T04:53:37.977Z,5.12
2022-10-07T04:56:05.399Z,4.75
2022-10-07T04:58:32.613Z,4.71
2022-10-07T05:01:00.431Z,4.50
2022-10-07T05:03:28.572Z,4.56
2022-10-07T05:05:56.751Z,4.49
2022-10-07T05:08:27.071Z,4.50
2022-10-07T05:10:57.734Z,4.61
2022-10-07T05:13:26.099Z,4.50
2022-10-07T05:15:55.228Z,4.49
2022-10-07T05:18:22.774Z,4.69
2022-10-07T05:20:50.245Z,4.88
2022-10-07T05:23:19.025Z,4.98
2022-10-07T05:25:46.583Z,5.08
2022-10-07T05:28:15.031Z,5.04
2022-10-07T05:30:42.199Z,4.94
2022-10-07T05:33:10.057Z,4.74
2022-10-07T05:35:36.610Z,4.79
2022-10-07T05:38:03.291Z,4.61
2022-10-07T05:40:29.852Z,4.70
2022-10-07T05:42:56.455Z,4.59
2022-10-07T05:45:23.005Z,4.58
2022-10-07T05:47:49.511Z,4.66
2022-10-07T05:50:16.375Z,4.70
2022-10-07T05:52:45.213Z,4.67
2022-10-07T05:55:12.089Z,4.52
2022-10-07T05:57:39.293Z,4.40
2022-10-07T06:00:07.149Z,4.38
2022-10-07T06:02:34.160Z,4.54
2022-10-07T06:05:01.285Z,4.67
2022-10-07T06:07:29.585Z,4.78
2022-10-07T06:10:14.702Z,4.72
2022-10-07T06:12:59.936Z,4.88
2022-10-07T06:15:26.484Z,4.71
2022-10-07T06:17:53.073Z,4.67
2022-10-07T06:20:19.539Z,4.49
2022-10-07T06:22:46.138Z,4.43
2022-10-07T06:25:12.596Z,4.26
2022-10-07T06:27:39.063Z,4.46
2022-10-07T06:30:06.590Z,4.53
2022-10-07T06:32:33.076Z,4.48
2022-10-07T06:34:59.609Z,4.51
2022-10-07T06:37:26.111Z,4.62
2022-10-07T06:39:58.663Z,4.62
2022-10-07T06:42:26.074Z,4.71
2022-10-07T06:44:53.888Z,4.69
2022-10-07T06:47:21.436Z,4.72
2022-10-07T06:49:48.021Z,4.63
2022-10-07T06:52:17.623Z,4.55
2022-10-07T06:54:44.190Z,4.81
2022-10-07T06:57:26.714Z,4.77
2022-10-07T06:59:57.173Z,4.67
2022-10-07T07:02:25.745Z,4.70
2022-10-07T07:04:57.570Z,4.87
2022-10-07T07:07:24.659Z,5.19
2022-10-07T07:09:51.962Z,5.36
2022-10-07T07:12:18.638Z,5.37
2022-10-07T07:14:45.459Z,5.49
2022-10-07T07:17:12.286Z,5.52
2022-10-07T07:19:38.850Z,5.65
2022-10-07T07:22:08.322Z,5.65
2022-10-07T07:24:34.906Z,5.93
2022-10-07T07:27:01.403Z,5.90
2022-10-07T07:29:31.016Z,6.07
2022-10-07T07:31:59.961Z,6.31
2022-10-07T07:34:26.599Z,6.73
2022-10-07T07:36:53.079Z,6.93
2022-10-07T07:39:22.596Z,7.20
2022-10-07T07:41:50.817Z,7.13
2022-10-07T07:44:18.742Z,7.45
2022-10-07T07:46:52.050Z,7.60
2022-10-07T07:49:20.937Z,7.59
2022-10-07T07:51:47.741Z,7.70
2022-10-07T07:54:14.945Z,7.60
2022-10-07T07:56:44.841Z,7.63
2022-10-07T08:03:55.941Z,7.98
2022-10-07T08:06:22.567Z,8.19
2022-10-07T08:08:49.377Z,8.28
2022-10-07T08:11:17.649Z,8.49
2022-10-07T08:13:45.793Z,8.48
2022-10-07T08:16:14.821Z,8.41
2022-10-07T08:18:42.300Z,8.67
2022-10-07T08:21:10.606Z,8.97
2022-10-07T08:23:40.236Z,9.16
2022-10-07T08:26:08.490Z,9.24
2022-10-07T08:28:35.718Z,9.43
2022-10-07T08:31:07.593Z,9.69
2022-10-07T08:33:36.406Z,9.99
2022-10-07T08:36:07.310Z,10.11
2022-10-07T08:38:48.101Z,9.97
2022-10-07T08:41:39.402Z,9.93
2022-10-07T08:44:16.382Z,10.13
2022-10-07T08:47:08.330Z,10.17
2022-10-07T08:50:16.726Z,10.30
2022-10-07T09:06:04.862Z,10.87
2022-10-07T09:08:36.111Z,10.86
2022-10-07T09:11:18.133Z,11.01
2022-10-07T09:13:51.082Z,11.12
2022-10-07T09:16:28.732Z,11.36
2022-10-07T09:18:58.202Z,11.52
2022-10-07T09:21:34.448Z,11.70
2022-10-07T09:24:15.065Z,11.73
2022-10-07T09:26:41.776Z,11.86
2022-10-07T09:29:09.849Z,12.02
2022-10-07T09:31:40.079Z,12.11
2022-10-07T09:34:17.976Z,12.21
2022-10-07T09:37:21.616Z,12.33
2022-10-07T09:39:50.746Z,12.30
2022-10-07T09:42:39.163Z,12.48
2022-10-07T09:45:21.757Z,12.70
2022-10-07T09:48:07.025Z,12.81
2022-10-07T09:50:37.707Z,12.91
2022-10-07T09:53:06.731Z,13.08
2022-10-07T09:55:40.074Z,13.25
2022-10-07T09:58:17.238Z,13.37
2022-10-07T10:00:45.431Z,13.55
2022-10-07T10:03:12.515Z,13.68
2022-10-07T10:05:41.499Z,13.84
2022-10-07T10:08:22.951Z,13.83
2022-10-07T10:10:56.842Z,13.85
2022-10-07T10:13:38.664Z,14.02
2022-10-07T10:16:25.943Z,14.09
2022-10-07T10:19:02.348Z,14.17
2022-10-07T10:21:30.538Z,14.31
2022-10-07T10:24:16.309Z,14.48
2022-10-07T10:27:03.721Z,14.67
2022-10-07T10:29:54.740Z,14.86
2022-10-07T10:32:55.646Z,14.87
2022-10-07T10:35:26.004Z,15.00
2022-10-07T10:38:04.808Z,15.04
2022-10-07T10:40:41.193Z,14.99
2022-10-07T10:43:25.606Z,15.12
2022-10-07T10:46:35.796Z,15.42
2022-10-07T10:49:26.039Z,15.44
2022-10-07T10:52:20.345Z,15.50
2022-10-07T10:55:05.667Z,15.47
2022-10-07T10:57:44.258Z,15.72
2022-10-07T11:00:15.281Z,15.68
2022-10-07T11:03:05.221Z,15.51
2022-10-07T11:05:35.347Z,15.64
2022-10-07T11:08:41.231Z,15.72
2022-10-07T11:11:12.206Z,15.84
2022-10-07T11:14:05.559Z,15.79
2022-10-07T11:16:39.235Z,15.91
2022-10-07T11:19:17.536Z,16.04
2022-10-07T11:21:47.551Z,15.89
2022-10-07T11:24:23.862Z,16.17
2022-10-07T11:26:58.015Z,16.14
2022-10-07T11:29:33.978Z,16.22
2022-10-07T11:32:23.081Z,16.53
2022-10-07T11:34:56.210Z,16.66
2022-10-07T11:37:49.950Z,16.76
2022-10-07T11:40:16.662Z,16.81
2022-10-07T11:42:44.971Z,16.71
2022-10-07T11:45:25.212Z,16.80
2022-10-07T11:47:56.620Z,16.99
2022-10-07T11:50:27.064Z,16.99
2022-10-07T11:52:56.020Z,17.22
2022-10-07T11:55:44.111Z,16.91
2022-10-07T11:58:24.334Z,17.08
2022-10-07T12:00:51.236Z,16.85
2022-10-07T12:03:17.873Z,17.11
2022-10-07T12:05:50.420Z,17.19
2022-10-07T12:08:28.083Z,17.39
2022-10-07T12:10:56.556Z,17.28
2022-10-07T12:13:22.929Z,17.29
2022-10-07T12:15:50.871Z,17.25
2022-10-07T12:18:17.418Z,17.41
2022-10-07T12:20:53.355Z,17.40
2022-10-07T12:23:20.177Z,17.20
2022-10-07T12:25:53.488Z,17.20
2022-10-07T12:28:34.616Z,17.37
2022-10-07T12:31:02.080Z,17.23
2022-10-07T12:33:34.551Z,17.25
2022-10-07T12:36:22.813Z,17.35
2022-10-07T12:38:59.124Z,17.56
2022-10-07T12:41:46.263Z,17.31
2022-10-07T12:44:33.427Z,17.57
2022-10-07T12:47:08.330Z,17.31
2022-10-07T12:49:37.655Z,17.41
2022-10-07T12:52:07.129Z,17.61
2022-10-07T12:54:39.403Z,17.47
2022-10-07T12:57:12.254Z,17.80
2022-10-07T13:00:07.405Z,17.86
2022-10-07T13:02:57.711Z,17.71
2022-10-07T13:06:04.047Z,17.58
2022-10-07T13:08:48.830Z,17.67
2022-10-07T13:11:47.841Z,17.82
2022-10-07T13:14:23.516Z,17.80
2022-10-07T13:17:11.591Z,17.89
2022-10-07T13:20:02.545Z,17.84
2022-10-07T13:22:34.197Z,17.91
2022-10-07T13:25:04.419Z,17.61
2022-10-07T13:27:32.847Z,17.79
2022-10-07T13:33:50.343Z,18.04
2022-10-07T13:36:23.055Z,18.15
2022-10-07T13:38:53.864Z,18.10
2022-10-07T13:41:27.737Z,18.07
2022-10-07T13:44:00.378Z,18.01
2022-10-07T13:46:29.352Z,18.14
2022-10-07T13:48:56.639Z,18.32
2022-10-07T13:51:36.844Z,18.33
2022-10-07T13:54:17.082Z,18.30
2022-10-07T13:56:49.241Z,18.35
2022-10-07T13:59:27.543Z,18.44
2022-10-07T14:01:56.459Z,18.58
2022-10-07T14:04:33.242Z,18.61
2022-10-07T14:07:21.784Z,18.58
2022-10-07T14:10:00.573Z,18.57
2022-10-07T14:12:50.037Z,18.53
2022-10-07T14:15:20.501Z,18.47
2022-10-07T14:17:50.666Z,18.54
2022-10-07T14:20:25.131Z,18.55
2022-10-07T14:22:59.965Z,18.60
2022-10-07T14:25:53.451Z,18.51
2022-10-07T14:28:30.284Z,18.49
2022-10-07T14:31:29.699Z,18.46
2022-10-07T14:34:32.775Z,18.32
2022-10-07T14:37:14.354Z,18.21
2022-10-07T14:39:44.830Z,18.28
2022-10-07T14:42:18.175Z,18.44
2022-10-07T14:44:44.755Z,18.55
2022-10-07T14:47:13.809Z,18.42
2022-10-07T14:49:56.810Z,18.69
2022-10-07T14:52:35.109Z,18.61
2022-10-07T14:55:10.440Z,18.45
2022-10-07T14:57:37.277Z,18.45
2022-10-07T15:00:07.033Z,18.37
2022-10-07T15:02:33.512Z,18.48
2022-10-07T15:05:00.135Z,18.42
2022-10-07T15:07:26.614Z,18.35
2022-10-07T15:09:53.231Z,18.46
2022-10-07T15:12:19.718Z,18.51
2022-10-07T15:14:46.151Z,18.43
2022-10-07T15:17:14.273Z,18.49
2022-10-07T15:19:40.924Z,18.50
2022-10-07T15:22:07.477Z,18.42
2022-10-07T15:24:34.521Z,18.32
2022-10-07T15:27:04.581Z,18.26
2022-10-07T15:29:31.770Z,18.10
2022-10-07T15:31:58.598Z,18.12
2022-10-07T15:34:25.864Z,18.06
2022-10-07T15:36:52.407Z,17.99
2022-10-07T15:39:18.967Z,17.87
2022-10-07T15:41:46.996Z,17.77
2022-10-07T15:44:22.359Z,17.74
2022-10-07T15:46:52.512Z,17.65
2022-10-07T15:49:19.028Z,17.50
2022-10-07T15:51:50.170Z,17.53
2022-10-07T15:54:17.240Z,17.55
2022-10-07T15:56:43.933Z,17.41
2022-10-07T15:59:10.470Z,17.45
2022-10-07T16:01:37.418Z,17.32
2022-10-07T16:04:04.230Z,17.32
2022-10-07T16:06:33.876Z,17.32
2022-10-07T16:09:19.454Z,17.30
2022-10-07T16:11:46.267Z,17.38
2022-10-07T16:14:12.940Z,17.34
2022-10-07T16:16:42.925Z,17.31
2022-10-07T16:19:11.576Z,17.23
2022-10-07T16:21:40.445Z,17.20
2022-10-07T16:24:11.287Z,17.20
2022-10-07T16:26:37.825Z,17.15
2022-10-07T16:29:25.471Z,16.90
2022-10-07T16:31:58.230Z,17.00
2022-10-07T16:34:25.723Z,16.98
2022-10-07T16:36:55.273Z,16.91
2022-10-07T16:39:22.200Z,16.79
2022-10-07T16:41:51.311Z,16.82
2022-10-07T16:44:19.221Z,16.87
2022-10-07T16:46:46.699Z,16.76
2022-10-07T16:49:15.485Z,16.66
2022-10-07T16:52:43.891Z,16.61
2022-10-07T16:55:12.988Z,16.62
2022-10-07T16:57:39.578Z,16.53
2022-10-07T17:00:07.655Z,16.47
2022-10-07T17:02:34.152Z,16.46
2022-10-07T17:05:00.646Z,16.26
2022-10-07T17:07:27.237Z,16.26
2022-10-07T17:09:53.726Z,16.23
2022-10-07T17:12:24.492Z,16.04
2022-10-07T17:14:51.509Z,15.96
2022-10-07T17:17:18.403Z,15.79
2022-10-07T17:19:44.953Z,15.73
2022-10-07T17:22:11.451Z,15.75
2022-10-07T17:24:38.159Z,15.55
2022-10-07T17:27:07.374Z,15.48
2022-10-07T17:29:34.242Z,15.44
2022-10-07T17:32:00.883Z,15.33
2022-10-07T17:34:27.676Z,15.37
2022-10-07T17:36:54.376Z,15.43
2022-10-07T17:39:21.133Z,15.40
2022-10-07T17:41:47.933Z,15.41
2022-10-07T17:44:14.788Z,15.29
2022-10-07T17:46:41.510Z,15.12
2022-10-07T17:49:11.560Z,15.01
2022-10-07T17:51:38.019Z,15.16
2022-10-07T17:54:06.139Z,15.13
2022-10-07T17:56:33.139Z,14.74
2022-10-07T17:58:59.785Z,14.98
2022-10-07T18:01:28.831Z,14.83
2022-10-07T18:03:59.285Z,14.73
2022-10-07T18:06:29.172Z,14.78
2022-10-07T18:08:56.173Z,14.64
2022-10-07T18:11:22.614Z,14.76
2022-10-07T18:14:07.787Z,14.66
2022-10-07T18:16:35.421Z,14.18
2022-10-07T18:19:02.362Z,14.14
2022-10-07T18:21:30.950Z,14.29
2022-10-07T18:23:58.103Z,14.40
2022-10-07T18:26:24.669Z,14.30
2022-10-07T18:28:51.497Z,14.20
2022-10-07T18:31:18.905Z,14.10
2022-10-07T18:33:46.237Z,14.25
2022-10-07T18:36:16.349Z,14.33
2022-10-07T18:38:44.154Z,14.11
2022-10-07T18:41:14.287Z,13.96
2022-10-07T18:43:41.699Z,13.93
2022-10-07T18:46:14.000Z,13.99
2022-10-07T18:48:42.297Z,14.07
2022-10-07T18:51:10.814Z,13.97
2022-10-07T18:53:39.176Z,13.90
2022-10-07T18:56:07.954Z,13.77
2022-10-07T18:58:35.734Z,13.84
2022-10-07T19:01:16.034Z,13.98
2022-10-07T19:03:43.269Z,13.82
2022-10-07T19:06:18.878Z,13.65
2022-10-07T19:08:46.185Z,13.64
2022-10-07T19:11:18.087Z,13.82
2022-10-07T19:13:48.014Z,13.89
2022-10-07T19:16:16.137Z,13.86
2022-10-07T19:18:43.703Z,13.86
2022-10-07T19:21:11.509Z,13.80
2022-10-07T19:23:39.217Z,13.94
2022-10-07T19:26:05.978Z,13.79
2022-10-07T19:28:34.799Z,13.78
2022-10-07T19:31:17.464Z,13.93
2022-10-07T19:33:45.308Z,13.95
2022-10-07T19:36:13.560Z,13.82
2022-10-07T19:38:44.110Z,13.75
2022-10-07T19:41:13.165Z,13.74
2022-10-07T19:43:41.205Z,13.65
2022-10-07T19:46:08.731Z,13.72
2022-10-07T19:48:35.930Z,13.78
2022-10-07T19:51:04.330Z,13.86
2022-10-07T19:53:35.559Z,13.91
2022-10-07T19:56:04.046Z,13.92
2022-10-07T19:58:33.350Z,14.01
2022-10-07T20:01:07.794Z,14.11
2022-10-07T20:03:34.992Z,14.16
2022-10-07T20:06:05.994Z,14.23
2022-10-07T20:08:34.273Z,14.19
2022-10-07T20:11:02.016Z,14.14
2022-10-07T20:13:30.176Z,14.13
2022-10-07T20:16:14.737Z,14.24
2022-10-07T20:18:41.629Z,14.25
2022-10-07T20:21:15.881Z,14.14
2022-10-07T20:23:44.994Z,14.16
2022-10-07T20:26:17.852Z,14.08
2022-10-07T20:28:49.337Z,14.18
2022-10-07T20:31:18.454Z,14.23
2022-10-07T20:33:46.847Z,14.23
2022-10-07T20:36:15.694Z,14.08
2022-10-07T20:39:00.833Z,13.81
2022-10-07T20:41:46.912Z,13.78
2022-10-07T20:44:15.071Z,13.86
2022-10-07T20:46:41.507Z,13.86
2022-10-07T20:49:24.488Z,13.85
2022-10-07T20:52:02.162Z,13.98
2022-10-07T20:54:30.306Z,13.98
2022-10-07T20:56:57.822Z,14.01
2022-10-07T20:59:25.555Z,14.05
2022-10-07T21:01:52.572Z,14.05
2022-10-07T21:04:20.290Z,14.07
2022-10-07T21:06:50.032Z,14.03
2022-10-07T21:09:17.505Z,14.00
2022-10-07T21:11:43.991Z,14.02
2022-10-07T21:14:11.479Z,13.93
2022-10-07T21:16:38.012Z,13.90
2022-10-07T21:19:04.981Z,13.90
2022-10-07T21:21:31.413Z,13.93
2022-10-07T21:23:58.976Z,14.02
2022-10-07T21:26:26.131Z,14.02
2022-10-07T21:28:52.598Z,14.02
2022-10-07T21:31:21.908Z,13.99
2022-10-07T21:33:52.620Z,13.99
2022-10-07T21:36:21.642Z,13.86
2022-10-07T21:38:56.663Z,13.73
2022-10-07T21:41:30.955Z,13.89
2022-10-07T21:44:00.687Z,13.80
2022-10-07T21:46:28.663Z,13.67
2022-10-07T21:48:56.799Z,13.67
2022-10-07T21:51:25.173Z,13.69
2022-10-07T21:53:52.778Z,13.66
2022-10-07T21:56:19.955Z,13.78
2022-10-07T21:58:49.165Z,13.83
2022-10-07T22:01:17.139Z,13.70
2022-10-07T22:03:44.340Z,13.70
2022-10-07T22:06:13.655Z,13.63
2022-10-07T22:08:42.205Z,13.79
2022-10-07T22:11:16.640Z,13.74
2022-10-07T22:13:53.280Z,13.83
2022-10-07T22:16:20.137Z,13.92
2022-10-07T22:18:51.394Z,13.83
2022-10-07T22:21:21.646Z,13.92
2022-10-07T22:23:52.524Z,13.93
2022-10-07T22:26:21.509Z,13.88
2022-10-07T22:28:47.989Z,13.92
2022-10-07T22:31:15.527Z,13.94
2022-10-07T22:33:43.049Z,13.91
2022-10-07T22:36:12.007Z,13.86
2022-10-07T22:38:40.890Z,13.92
2022-10-07T22:41:09.658Z,13.98
2022-10-07T22:43:36.622Z,13.96
2022-10-07T22:46:03.665Z,14.00
2022-10-07T22:48:31.490Z,13.99
2022-10-07T22:51:08.489Z,13.93
2022-10-07T22:53:36.953Z,13.88
2022-10-07T22:56:05.355Z,13.86
2022-10-07T22:58:32.426Z,13.96
2022-10-07T23:01:06.094Z,14.00
2022-10-07T23:03:32.802Z,14.00
2022-10-07T23:06:00.028Z,13.97
2022-10-07T23:08:26.644Z,13.76
2022-10-07T23:10:56.917Z,13.81
2022-10-07T23:13:26.742Z,13.61
2022-10-07T23:16:01.383Z,13.58
2022-10-07T23:18:28.840Z,13.71
2022-10-07T23:21:06.151Z,13.69
2022-10-07T23:23:37.149Z,13.72
2022-10-07T23:26:15.601Z,13.78
2022-10-07T23:28:42.274Z,13.81
2022-10-07T23:31:11.178Z,13.82
2022-10-07T23:33:38.179Z,13.83
2022-10-07T23:36:06.643Z,13.87
2022-10-07T23:38:33.483Z,13.88
2022-10-07T23:41:01.282Z,13.80
2022-10-07T23:43:28.221Z,13.84
2022-10-07T23:45:54.726Z,13.73
2022-10-07T23:48:21.294Z,13.53
2022-10-07T23:50:51.937Z,13.66
2022-10-07T23:53:19.942Z,13.69
2022-10-07T23:55:48.286Z,13.58
2022-10-07T23:58:15.958Z,13.57
